sensor_id;sensor_type;location;lat;lon;timestamp;pressure;altitude;pressure_sealevel;temperature;humidity
4469;BME280;2247;42.666;23.292;2022-10-31T00:00:13;94860.22;;;17.65;45.67
4469;BME280;2247;42.666;23.292;2022-10-31T00:02:40;94856.31;;;17.63;45.46
4469;BME280;2247;42.666;23.292;2022-10-31T00:05:09;94853.09;;;17.75;45.09
4469;BME280;2247;42.666;23.292;2022-10-31T00:07:35;94847.19;;;17.64;45.40
4469;BME280;2247;42.666;23.292;2022-10-31T00:10:03;94843.44;;;17.65;45.84
4469;BME280;2247;42.666;23.292;2022-10-31T00:12:30;94842.84;;;17.68;45.49
4469;BME280;2247;42.666;23.292;2022-10-31T00:14:56;94852.53;;;17.64;46.02
4469;BME280;2247;42.666;23.292;2022-10-31T00:17:23;94850.66;;;17.64;45.99
4469;BME280;2247;42.666;23.292;2022-10-31T00:19:50;94848.63;;;17.61;45.74
4469;BME280;2247;42.666;23.292;2022-10-31T00:22:19;94855.72;;;17.52;46.01
4469;BME280;2247;42.666;23.292;2022-10-31T00:24:45;94861.97;;;17.48;46.35
4469;BME280;2247;42.666;23.292;2022-10-31T00:27:12;94860.69;;;17.45;46.53
4469;BME280;2247;42.666;23.292;2022-10-31T00:29:39;94850.50;;;17.47;46.63
4469;BME280;2247;42.666;23.292;2022-10-31T00:32:07;94850.59;;;17.56;46.32
4469;BME280;2247;42.666;23.292;2022-10-31T00:34:33;94842.09;;;17.54;46.67
4469;BME280;2247;42.666;23.292;2022-10-31T00:37:00;94848.69;;;17.56;46.29
4469;BME280;2247;42.666;23.292;2022-10-31T00:39:29;94844.16;;;17.57;46.60
4469;BME280;2247;42.666;23.292;2022-10-31T00:41:56;94840.03;;;17.51;46.76
4469;BME280;2247;42.666;23.292;2022-10-31T00:44:23;94832.88;;;17.60;46.59
4469;BME280;2247;42.666;23.292;2022-10-31T00:46:50;94842.09;;;17.54;46.46
4469;BME280;2247;42.666;23.292;2022-10-31T00:49:17;94837.06;;;17.52;47.00
4469;BME280;2247;42.666;23.292;2022-10-31T00:51:43;94837.69;;;17.49;47.01
4469;BME280;2247;42.666;23.292;2022-10-31T00:54:10;94833.63;;;17.52;47.20
4469;BME280;2247;42.666;23.292;2022-10-31T00:56:38;94837.34;;;17.51;46.88
4469;BME280;2247;42.666;23.292;2022-10-31T00:59:05;94845.34;;;17.51;47.00
4469;BME280;2247;42.666;23.292;2022-10-31T01:01:32;94834.41;;;17.52;47.11
4469;BME280;2247;42.666;23.292;2022-10-31T01:03:59;94842.03;;;17.45;47.45
4469;BME280;2247;42.666;23.292;2022-10-31T01:06:25;94837.56;;;17.54;46.89
4469;BME280;2247;42.666;23.292;2022-10-31T01:08:53;94836.81;;;17.40;47.23
4469;BME280;2247;42.666;23.292;2022-10-31T01:11:21;94842.31;;;17.44;47.28
4469;BME280;2247;42.666;23.292;2022-10-31T01:13:52;94852.50;;;17.42;47.52
4469;BME280;2247;42.666;23.292;2022-10-31T01:16:21;94848.38;;;17.36;47.81
4469;BME280;2247;42.666;23.292;2022-10-31T01:18:48;94854.19;;;17.38;47.76
4469;BME280;2247;42.666;23.292;2022-10-31T01:21:17;94850.22;;;17.49;47.50
4469;BME280;2247;42.666;23.292;2022-10-31T01:23:44;94855.97;;;17.42;47.68
4469;BME280;2247;42.666;23.292;2022-10-31T01:26:13;94864.94;;;17.46;47.89
4469;BME280;2247;42.666;23.292;2022-10-31T01:28:44;94858.72;;;17.37;47.92
4469;BME280;2247;42.666;23.292;2022-10-31T01:31:13;94856.63;;;17.48;47.86
4469;BME280;2247;42.666;23.292;2022-10-31T01:33:40;94857.31;;;17.53;48.09
4469;BME280;2247;42.666;23.292;2022-10-31T01:36:15;94856.38;;;17.58;47.85
4469;BME280;2247;42.666;23.292;2022-10-31T01:38:43;94864.81;;;17.51;48.08
4469;BME280;2247;42.666;23.292;2022-10-31T01:41:10;94851.00;;;17.49;48.05
4469;BME280;2247;42.666;23.292;2022-10-31T01:43:46;94859.59;;;17.46;48.52
4469;BME280;2247;42.666;23.292;2022-10-31T01:46:16;94858.94;;;17.41;48.79
4469;BME280;2247;42.666;23.292;2022-10-31T01:48:45;94854.19;;;17.38;49.05
4469;BME280;2247;42.666;23.292;2022-10-31T01:51:14;94868.44;;;17.33;48.83
4469;BME280;2247;42.666;23.292;2022-10-31T01:53:44;94859.03;;;17.36;49.14
4469;BME280;2247;42.666;23.292;2022-10-31T01:56:13;94862.72;;;17.26;49.03
4469;BME280;2247;42.666;23.292;2022-10-31T01:58:45;94865.97;;;17.23;49.54
4469;BME280;2247;42.666;23.292;2022-10-31T02:01:12;94863.09;;;17.33;49.19
4469;BME280;2247;42.666;23.292;2022-10-31T02:03:42;94863.88;;;17.33;49.41
4469;BME280;2247;42.666;23.292;2022-10-31T02:06:16;94860.59;;;17.37;48.93
4469;BME280;2247;42.666;23.292;2022-10-31T02:08:45;94851.59;;;17.46;48.83
4469;BME280;2247;42.666;23.292;2022-10-31T02:11:12;94861.19;;;17.47;49.02
4469;BME280;2247;42.666;23.292;2022-10-31T02:13:39;94853.19;;;17.47;49.15
4469;BME280;2247;42.666;23.292;2022-10-31T02:16:09;94852.97;;;17.44;49.16
4469;BME280;2247;42.666;23.292;2022-10-31T02:18:36;94854.25;;;17.46;49.30
4469;BME280;2247;42.666;23.292;2022-10-31T02:21:09;94849.66;;;17.38;49.40
4469;BME280;2247;42.666;23.292;2022-10-31T02:27:09;94864.44;;;17.44;49.61
4469;BME280;2247;42.666;23.292;2022-10-31T02:30:05;94870.56;;;17.45;49.90
4469;BME280;2247;42.666;23.292;2022-10-31T02:32:41;94864.34;;;17.36;50.04
4469;BME280;2247;42.666;23.292;2022-10-31T02:35:13;94876.13;;;17.35;50.22
4469;BME280;2247;42.666;23.292;2022-10-31T02:37:49;94866.47;;;17.25;50.37
4469;BME280;2247;42.666;23.292;2022-10-31T02:40:22;94879.91;;;17.20;50.53
4469;BME280;2247;42.666;23.292;2022-10-31T02:42:56;94872.78;;;17.15;51.07
4469;BME280;2247;42.666;23.292;2022-10-31T02:45:29;94881.28;;;17.17;51.15
4469;BME280;2247;42.666;23.292;2022-10-31T02:48:03;94883.66;;;17.19;50.70
4469;BME280;2247;42.666;23.292;2022-10-31T02:50:36;94887.78;;;17.25;51.07
4469;BME280;2247;42.666;23.292;2022-10-31T02:53:06;94880.66;;;17.34;50.87
4469;BME280;2247;42.666;23.292;2022-10-31T02:55:50;94891.78;;;17.36;50.56
4469;BME280;2247;42.666;23.292;2022-10-31T02:58:21;94887.94;;;17.42;50.58
4469;BME280;2247;42.666;23.292;2022-10-31T03:00:59;94886.25;;;17.46;50.33
4469;BME280;2247;42.666;23.292;2022-10-31T03:03:36;94888.25;;;17.41;50.45
4469;BME280;2247;42.666;23.292;2022-10-31T03:06:10;94893.28;;;17.42;50.54
4469;BME280;2247;42.666;23.292;2022-10-31T03:08:44;94890.28;;;17.44;50.43
4469;BME280;2247;42.666;23.292;2022-10-31T03:11:17;94902.09;;;17.51;50.48
4469;BME280;2247;42.666;23.292;2022-10-31T03:13:50;94896.59;;;17.48;50.69
4469;BME280;2247;42.666;23.292;2022-10-31T03:16:29;94896.41;;;17.44;50.37
4469;BME280;2247;42.666;23.292;2022-10-31T03:19:05;94892.94;;;17.44;50.58
4469;BME280;2247;42.666;23.292;2022-10-31T03:21:35;94885.53;;;17.54;50.17
4469;BME280;2247;42.666;23.292;2022-10-31T03:24:07;94882.06;;;17.54;50.18
4469;BME280;2247;42.666;23.292;2022-10-31T03:26:39;94899.13;;;17.66;50.09
4469;BME280;2247;42.666;23.292;2022-10-31T03:29:10;94896.66;;;17.70;49.99
4469;BME280;2247;42.666;23.292;2022-10-31T03:31:43;94898.41;;;17.75;50.08
4469;BME280;2247;42.666;23.292;2022-10-31T03:34:13;94902.16;;;17.74;49.88
4469;BME280;2247;42.666;23.292;2022-10-31T03:36:43;94903.25;;;17.73;49.77
4469;BME280;2247;42.666;23.292;2022-10-31T03:39:13;94906.63;;;17.64;50.08
4469;BME280;2247;42.666;23.292;2022-10-31T03:41:45;94908.50;;;17.64;50.30
4469;BME280;2247;42.666;23.292;2022-10-31T03:44:17;94902.47;;;17.58;50.23
4469;BME280;2247;42.666;23.292;2022-10-31T03:46:45;94903.09;;;17.55;50.59
4469;BME280;2247;42.666;23.292;2022-10-31T03:49:14;94912.31;;;17.49;50.67
4469;BME280;2247;42.666;23.292;2022-10-31T03:51:45;94904.63;;;17.34;51.30
4469;BME280;2247;42.666;23.292;2022-10-31T03:54:23;94913.63;;;17.24;51.31
4469;BME280;2247;42.666;23.292;2022-10-31T03:56:53;94914.66;;;17.15;51.97
4469;BME280;2247;42.666;23.292;2022-10-31T03:59:25;94917.50;;;17.18;51.63
4469;BME280;2247;42.666;23.292;2022-10-31T04:01:59;94920.75;;;17.15;52.08
4469;BME280;2247;42.666;23.292;2022-10-31T04:04:29;94915.03;;;17.08;52.17
4469;BME280;2247;42.666;23.292;2022-10-31T04:06:57;94931.22;;;17.12;52.05
4469;BME280;2247;42.666;23.292;2022-10-31T04:09:27;94924.59;;;17.09;52.31
4469;BME280;2247;42.666;23.292;2022-10-31T04:11:56;94923.59;;;17.19;51.60
4469;BME280;2247;42.666;23.292;2022-10-31T04:14:27;94927.34;;;17.18;51.86
4469;BME280;2247;42.666;23.292;2022-10-31T04:16:56;94920.84;;;17.10;51.87
4469;BME280;2247;42.666;23.292;2022-10-31T04:19:23;94926.47;;;16.95;52.67
4469;BME280;2247;42.666;23.292;2022-10-31T04:21:51;94926.50;;;16.81;53.20
4469;BME280;2247;42.666;23.292;2022-10-31T04:24:18;94921.56;;;16.88;52.79
4469;BME280;2247;42.666;23.292;2022-10-31T04:26:45;94932.19;;;16.88;53.30
4469;BME280;2247;42.666;23.292;2022-10-31T04:29:12;94932.81;;;16.85;52.94
4469;BME280;2247;42.666;23.292;2022-10-31T04:31:39;94931.41;;;16.88;52.99
4469;BME280;2247;42.666;23.292;2022-10-31T04:34:06;94941.09;;;16.98;52.49
4469;BME280;2247;42.666;23.292;2022-10-31T04:36:34;94925.63;;;17.00;52.55
4469;BME280;2247;42.666;23.292;2022-10-31T04:39:02;94931.72;;;17.00;52.81
4469;BME280;2247;42.666;23.292;2022-10-31T04:41:29;94932.28;;;17.11;52.76
4469;BME280;2247;42.666;23.292;2022-10-31T04:43:56;94930.25;;;17.08;52.37
4469;BME280;2247;42.666;23.292;2022-10-31T04:46:23;94940.28;;;17.11;52.33
4469;BME280;2247;42.666;23.292;2022-10-31T04:48:52;94938.41;;;17.11;52.27
4469;BME280;2247;42.666;23.292;2022-10-31T04:51:19;94935.56;;;17.08;52.54
4469;BME280;2247;42.666;23.292;2022-10-31T04:53:45;94936.53;;;17.25;51.94
4469;BME280;2247;42.666;23.292;2022-10-31T04:56:13;94933.75;;;17.30;51.59
4469;BME280;2247;42.666;23.292;2022-10-31T04:58:40;94940.91;;;17.44;51.57
4469;BME280;2247;42.666;23.292;2022-10-31T05:01:07;94951.31;;;17.31;51.77
4469;BME280;2247;42.666;23.292;2022-10-31T05:03:35;94959.91;;;17.28;52.10
4469;BME280;2247;42.666;23.292;2022-10-31T05:06:05;94947.59;;;17.19;52.10
4469;BME280;2247;42.666;23.292;2022-10-31T05:08:32;94956.06;;;17.21;52.22
4469;BME280;2247;42.666;23.292;2022-10-31T05:10:59;94961.16;;;17.31;51.90
4469;BME280;2247;42.666;23.292;2022-10-31T05:13:29;94960.59;;;17.34;51.94
4469;BME280;2247;42.666;23.292;2022-10-31T05:15:56;94964.84;;;17.35;51.86
4469;BME280;2247;42.666;23.292;2022-10-31T05:18:24;94956.44;;;17.42;51.50
4469;BME280;2247;42.666;23.292;2022-10-31T05:20:51;94966.84;;;17.52;51.46
4469;BME280;2247;42.666;23.292;2022-10-31T05:23:17;94965.88;;;17.48;51.59
4469;BME280;2247;42.666;23.292;2022-10-31T05:25:44;94966.34;;;17.50;51.43
4469;BME280;2247;42.666;23.292;2022-10-31T05:28:11;94970.06;;;17.40;51.57
4469;BME280;2247;42.666;23.292;2022-10-31T05:30:39;94964.22;;;17.38;51.78
4469;BME280;2247;42.666;23.292;2022-10-31T05:33:06;94965.09;;;17.47;51.55
4469;BME280;2247;42.666;23.292;2022-10-31T05:35:33;94978.44;;;17.61;51.58
4469;BME280;2247;42.666;23.292;2022-10-31T05:38:00;94966.28;;;17.55;51.16
4469;BME280;2247;42.666;23.292;2022-10-31T05:40:28;94979.47;;;17.60;51.10
4469;BME280;2247;42.666;23.292;2022-10-31T05:42:56;94980.72;;;17.40;51.53
4469;BME280;2247;42.666;23.292;2022-10-31T05:45:24;94973.72;;;17.03;53.12
4469;BME280;2247;42.666;23.292;2022-10-31T05:47:54;94976.38;;;16.89;53.19
4469;BME280;2247;42.666;23.292;2022-10-31T05:50:22;94984.09;;;16.91;53.36
4469;BME280;2247;42.666;23.292;2022-10-31T05:52:55;94986.63;;;16.82;53.64
4469;BME280;2247;42.666;23.292;2022-10-31T05:55:21;94989.13;;;16.92;53.47
4469;BME280;2247;42.666;23.292;2022-10-31T05:57:49;94986.44;;;17.20;53.48
4469;BME280;2247;42.666;23.292;2022-10-31T06:00:18;94994.00;;;17.54;53.85
4469;BME280;2247;42.666;23.292;2022-10-31T06:02:45;94999.47;;;17.85;54.09
4469;BME280;2247;42.666;23.292;2022-10-31T06:05:14;95002.53;;;18.14;53.90
4469;BME280;2247;42.666;23.292;2022-10-31T06:07:41;95010.63;;;18.45;53.78
4469;BME280;2247;42.666;23.292;2022-10-31T06:10:09;94997.44;;;18.71;53.18
4469;BME280;2247;42.666;23.292;2022-10-31T06:12:36;95005.41;;;18.93;52.03
4469;BME280;2247;42.666;23.292;2022-10-31T06:15:07;95007.34;;;19.10;49.99
4469;BME280;2247;42.666;23.292;2022-10-31T06:17:35;95006.16;;;19.24;49.36
4469;BME280;2247;42.666;23.292;2022-10-31T06:20:03;95012.66;;;19.41;49.69
4469;BME280;2247;42.666;23.292;2022-10-31T06:22:32;95013.50;;;19.58;49.90
4469;BME280;2247;42.666;23.292;2022-10-31T06:24:59;95014.47;;;19.71;49.09
4469;BME280;2247;42.666;23.292;2022-10-31T06:27:26;95018.75;;;19.81;48.79
4469;BME280;2247;42.666;23.292;2022-10-31T06:29:53;95033.53;;;19.87;48.05
4469;BME280;2247;42.666;23.292;2022-10-31T06:32:20;95024.72;;;19.86;47.99
4469;BME280;2247;42.666;23.292;2022-10-31T06:34:47;95031.66;;;19.87;47.85
4469;BME280;2247;42.666;23.292;2022-10-31T06:37:14;95027.25;;;19.83;46.88
4469;BME280;2247;42.666;23.292;2022-10-31T06:39:43;95030.97;;;19.64;46.56
4469;BME280;2247;42.666;23.292;2022-10-31T06:42:10;95027.66;;;19.59;47.34
4469;BME280;2247;42.666;23.292;2022-10-31T06:44:37;95033.97;;;19.63;47.60
4469;BME280;2247;42.666;23.292;2022-10-31T06:47:05;95023.28;;;19.63;47.36
4469;BME280;2247;42.666;23.292;2022-10-31T06:49:31;95039.19;;;19.68;47.66
4469;BME280;2247;42.666;23.292;2022-10-31T06:51:58;95035.53;;;19.55;47.11
4469;BME280;2247;42.666;23.292;2022-10-31T06:54:26;95038.34;;;19.50;46.65
4469;BME280;2247;42.666;23.292;2022-10-31T06:56:54;95028.91;;;19.53;46.85
4469;BME280;2247;42.666;23.292;2022-10-31T06:59:21;95029.56;;;19.58;47.05
4469;BME280;2247;42.666;23.292;2022-10-31T07:01:49;95032.06;;;19.55;47.11
4469;BME280;2247;42.666;23.292;2022-10-31T07:04:16;95039.00;;;19.56;46.91
4469;BME280;2247;42.666;23.292;2022-10-31T07:06:43;95034.44;;;19.65;46.96
4469;BME280;2247;42.666;23.292;2022-10-31T07:09:10;95037.78;;;19.79;46.89
4469;BME280;2247;42.666;23.292;2022-10-31T07:11:37;95030.72;;;19.83;46.64
4469;BME280;2247;42.666;23.292;2022-10-31T07:14:07;95042.03;;;19.80;46.67
4469;BME280;2247;42.666;23.292;2022-10-31T07:16:34;95040.44;;;19.79;46.63
4469;BME280;2247;42.666;23.292;2022-10-31T07:19:01;95036.84;;;19.75;46.66
4469;BME280;2247;42.666;23.292;2022-10-31T07:21:28;95034.94;;;19.76;48.23
4469;BME280;2247;42.666;23.292;2022-10-31T07:23:55;95031.16;;;19.85;49.10
4469;BME280;2247;42.666;23.292;2022-10-31T07:26:22;95029.94;;;19.91;48.90
4469;BME280;2247;42.666;23.292;2022-10-31T07:28:49;95018.59;;;19.94;48.28
4469;BME280;2247;42.666;23.292;2022-10-31T07:31:17;95015.63;;;20.04;49.33
4469;BME280;2247;42.666;23.292;2022-10-31T07:33:44;95011.03;;;20.14;49.26
4469;BME280;2247;42.666;23.292;2022-10-31T07:36:11;95015.31;;;20.23;48.91
4469;BME280;2247;42.666;23.292;2022-10-31T07:38:38;95016.09;;;20.24;47.49
4469;BME280;2247;42.666;23.292;2022-10-31T07:41:05;95013.25;;;20.29;47.33
4469;BME280;2247;42.666;23.292;2022-10-31T07:43:32;95009.94;;;20.23;47.46
4469;BME280;2247;42.666;23.292;2022-10-31T07:46:00;95002.22;;;20.22;46.59
4469;BME280;2247;42.666;23.292;2022-10-31T07:48:29;95013.41;;;20.15;47.08
4469;BME280;2247;42.666;23.292;2022-10-31T07:50:56;95011.22;;;20.09;48.39
4469;BME280;2247;42.666;23.292;2022-10-31T07:53:23;95010.59;;;20.03;47.68
4469;BME280;2247;42.666;23.292;2022-10-31T07:55:50;95008.22;;;20.01;47.39
4469;BME280;2247;42.666;23.292;2022-10-31T07:58:17;95001.28;;;19.92;47.69
4469;BME280;2247;42.666;23.292;2022-10-31T08:00:46;95008.38;;;19.96;47.69
4469;BME280;2247;42.666;23.292;2022-10-31T08:03:14;95021.44;;;20.06;47.04
4469;BME280;2247;42.666;23.292;2022-10-31T08:05:44;95017.03;;;20.02;46.91
4469;BME280;2247;42.666;23.292;2022-10-31T08:08:12;95016.25;;;20.01;47.09
4469;BME280;2247;42.666;23.292;2022-10-31T08:10:39;95009.81;;;20.11;47.04
4469;BME280;2247;42.666;23.292;2022-10-31T08:13:08;95014.34;;;20.19;46.80
4469;BME280;2247;42.666;23.292;2022-10-31T08:15:36;95012.00;;;20.18;46.95
4469;BME280;2247;42.666;23.292;2022-10-31T08:18:05;95017.34;;;20.18;46.67
4469;BME280;2247;42.666;23.292;2022-10-31T08:20:32;95009.31;;;20.18;46.90
4469;BME280;2247;42.666;23.292;2022-10-31T08:23:02;95023.16;;;20.20;47.04
4469;BME280;2247;42.666;23.292;2022-10-31T08:25:31;95017.81;;;20.28;47.15
4469;BME280;2247;42.666;23.292;2022-10-31T08:27:58;95021.44;;;20.32;46.82
4469;BME280;2247;42.666;23.292;2022-10-31T08:30:28;95017.66;;;20.25;46.65
4469;BME280;2247;42.666;23.292;2022-10-31T08:32:59;95020.19;;;20.30;46.92
4469;BME280;2247;42.666;23.292;2022-10-31T08:35:27;95017.81;;;20.28;46.71
4469;BME280;2247;42.666;23.292;2022-10-31T08:37:55;95017.84;;;20.37;46.78
4469;BME280;2247;42.666;23.292;2022-10-31T08:40:24;95012.31;;;20.42;46.74
4469;BME280;2247;42.666;23.292;2022-10-31T08:42:58;95012.31;;;20.51;46.94
4469;BME280;2247;42.666;23.292;2022-10-31T08:45:26;95016.72;;;20.55;46.26
4469;BME280;2247;42.666;23.292;2022-10-31T08:47:56;95019.69;;;20.62;46.45
4469;BME280;2247;42.666;23.292;2022-10-31T08:50:24;95005.06;;;20.60;46.48
4469;BME280;2247;42.666;23.292;2022-10-31T08:52:51;95013.59;;;20.53;46.50
4469;BME280;2247;42.666;23.292;2022-10-31T08:55:18;95015.78;;;20.60;46.72
4469;BME280;2247;42.666;23.292;2022-10-31T08:57:46;95008.53;;;20.60;46.56
4469;BME280;2247;42.666;23.292;2022-10-31T09:00:13;95012.59;;;20.66;46.73
4469;BME280;2247;42.666;23.292;2022-10-31T09:02:40;95008.84;;;20.67;46.88
4469;BME280;2247;42.666;23.292;2022-10-31T09:05:07;95009.88;;;20.75;46.68
4469;BME280;2247;42.666;23.292;2022-10-31T09:07:35;95020.78;;;20.78;46.70
4469;BME280;2247;42.666;23.292;2022-10-31T09:10:02;95014.13;;;20.84;46.58
4469;BME280;2247;42.666;23.292;2022-10-31T09:12:29;95007.00;;;20.89;46.05
4469;BME280;2247;42.666;23.292;2022-10-31T09:14:57;95018.50;;;20.98;46.19
4469;BME280;2247;42.666;23.292;2022-10-31T09:17:27;95004.34;;;20.89;46.41
4469;BME280;2247;42.666;23.292;2022-10-31T09:19:54;94999.94;;;20.93;46.02
4469;BME280;2247;42.666;23.292;2022-10-31T09:22:21;95003.91;;;20.78;46.54
4469;BME280;2247;42.666;23.292;2022-10-31T09:24:48;95000.91;;;20.88;46.83
4469;BME280;2247;42.666;23.292;2022-10-31T09:27:14;95002.59;;;20.93;46.59
4469;BME280;2247;42.666;23.292;2022-10-31T09:29:42;95000.69;;;21.02;46.31
4469;BME280;2247;42.666;23.292;2022-10-31T09:32:10;94996.88;;;21.03;46.58
4469;BME280;2247;42.666;23.292;2022-10-31T09:34:37;94999.72;;;21.06;46.55
4469;BME280;2247;42.666;23.292;2022-10-31T09:37:03;94998.94;;;21.06;46.40
4469;BME280;2247;42.666;23.292;2022-10-31T09:39:31;94995.63;;;21.00;46.49
4469;BME280;2247;42.666;23.292;2022-10-31T09:42:07;95006.84;;;20.94;46.77
4469;BME280;2247;42.666;23.292;2022-10-31T09:44:46;94994.56;;;20.93;46.65
4469;BME280;2247;42.666;23.292;2022-10-31T09:47:26;94994.56;;;20.93;46.59
4469;BME280;2247;42.666;23.292;2022-10-31T09:50:06;94995.31;;;21.02;46.16
4469;BME280;2247;42.666;23.292;2022-10-31T09:52:39;95002.88;;;21.08;46.20
4469;BME280;2247;42.666;23.292;2022-10-31T09:55:14;94994.03;;;21.08;46.71
4469;BME280;2247;42.666;23.292;2022-10-31T09:57:44;94992.00;;;21.05;46.50
4469;BME280;2247;42.666;23.292;2022-10-31T10:00:16;94987.56;;;21.09;46.33
4469;BME280;2247;42.666;23.292;2022-10-31T10:02:48;94991.00;;;21.18;46.49
4469;BME280;2247;42.666;23.292;2022-10-31T10:05:21;94989.72;;;21.24;45.83
4469;BME280;2247;42.666;23.292;2022-10-31T10:07:57;94983.91;;;21.22;45.89
4469;BME280;2247;42.666;23.292;2022-10-31T10:10:34;94973.97;;;21.23;45.49
4469;BME280;2247;42.666;23.292;2022-10-31T10:13:20;94969.88;;;21.16;45.11
4469;BME280;2247;42.666;23.292;2022-10-31T10:15:58;94964.53;;;21.16;45.28
4469;BME280;2247;42.666;23.292;2022-10-31T10:18:37;94965.78;;;21.19;44.82
4469;BME280;2247;42.666;23.292;2022-10-31T10:21:13;94970.34;;;21.18;44.49
4469;BME280;2247;42.666;23.292;2022-10-31T10:23:55;94967.34;;;21.20;44.72
4469;BME280;2247;42.666;23.292;2022-10-31T10:26:30;94965.16;;;21.22;44.56
4469;BME280;2247;42.666;23.292;2022-10-31T10:29:02;94953.75;;;21.25;44.10
4469;BME280;2247;42.666;23.292;2022-10-31T10:31:38;94950.44;;;21.28;44.49
4469;BME280;2247;42.666;23.292;2022-10-31T10:34:14;94954.19;;;21.36;44.52
4469;BME280;2247;42.666;23.292;2022-10-31T10:36:46;94953.22;;;21.40;44.00
4469;BME280;2247;42.666;23.292;2022-10-31T10:39:19;94945.75;;;21.46;43.89
4469;BME280;2247;42.666;23.292;2022-10-31T10:41:49;94937.38;;;21.47;43.63
4469;BME280;2247;42.666;23.292;2022-10-31T10:44:37;94942.13;;;21.50;43.63
4469;BME280;2247;42.666;23.292;2022-10-31T10:47:24;94935.44;;;21.56;43.74
4469;BME280;2247;42.666;23.292;2022-10-31T10:50:12;94933.59;;;21.48;42.98
4469;BME280;2247;42.666;23.292;2022-10-31T10:52:48;94938.13;;;21.56;43.00
4469;BME280;2247;42.666;23.292;2022-10-31T10:55:26;94933.03;;;21.64;42.60
4469;BME280;2247;42.666;23.292;2022-10-31T10:57:56;94932.34;;;21.67;42.90
4469;BME280;2247;42.666;23.292;2022-10-31T11:00:26;94934.31;;;21.57;42.34
4469;BME280;2247;42.666;23.292;2022-10-31T11:02:53;94933.63;;;21.69;41.83
4469;BME280;2247;42.666;23.292;2022-10-31T11:05:30;94936.09;;;21.74;41.69
4469;BME280;2247;42.666;23.292;2022-10-31T11:08:00;94929.16;;;21.73;41.12
4469;BME280;2247;42.666;23.292;2022-10-31T11:10:26;94923.72;;;21.61;41.81
4469;BME280;2247;42.666;23.292;2022-10-31T11:13:17;94911.56;;;21.64;41.84
4469;BME280;2247;42.666;23.292;2022-10-31T11:15:54;94928.19;;;21.78;41.38
4469;BME280;2247;42.666;23.292;2022-10-31T11:18:23;94921.03;;;21.82;41.81
4469;BME280;2247;42.666;23.292;2022-10-31T11:20:55;94912.19;;;21.81;41.55
4469;BME280;2247;42.666;23.292;2022-10-31T11:23:24;94918.22;;;21.78;40.85
4469;BME280;2247;42.666;23.292;2022-10-31T11:25:54;94909.47;;;21.69;41.04
4469;BME280;2247;42.666;23.292;2022-10-31T11:28:22;94912.41;;;21.76;41.66
4469;BME280;2247;42.666;23.292;2022-10-31T11:30:52;94911.09;;;21.82;41.53
4469;BME280;2247;42.666;23.292;2022-10-31T11:33:25;94911.56;;;21.84;41.17
4469;BME280;2247;42.666;23.292;2022-10-31T11:35:54;94902.91;;;21.79;40.77
4469;BME280;2247;42.666;23.292;2022-10-31T11:38:26;94904.88;;;21.90;40.88
4469;BME280;2247;42.666;23.292;2022-10-31T11:40:58;94896.50;;;21.92;41.27
4469;BME280;2247;42.666;23.292;2022-10-31T11:43:26;94902.78;;;21.96;41.05
4469;BME280;2247;42.666;23.292;2022-10-31T11:45:53;94896.50;;;21.92;40.98
4469;BME280;2247;42.666;23.292;2022-10-31T11:48:23;94894.06;;;21.99;41.12
4469;BME280;2247;42.666;23.292;2022-10-31T11:50:52;94890.44;;;21.95;41.26
4469;BME280;2247;42.666;23.292;2022-10-31T11:53:25;94887.94;;;21.98;41.42
4469;BME280;2247;42.666;23.292;2022-10-31T11:56:03;94878.44;;;22.01;41.43
4469;BME280;2247;42.666;23.292;2022-10-31T11:58:30;94890.28;;;22.00;41.64
4469;BME280;2247;42.666;23.292;2022-10-31T12:00:57;94885.50;;;22.06;41.35
4469;BME280;2247;42.666;23.292;2022-10-31T12:03:36;94882.94;;;22.09;41.26
4469;BME280;2247;42.666;23.292;2022-10-31T12:06:09;94878.22;;;22.06;40.81
4469;BME280;2247;42.666;23.292;2022-10-31T12:08:41;94876.66;;;22.05;40.83
4469;BME280;2247;42.666;23.292;2022-10-31T12:11:14;94875.00;;;22.13;40.70
4469;BME280;2247;42.666;23.292;2022-10-31T12:13:55;94873.69;;;22.19;40.65
4469;BME280;2247;42.666;23.292;2022-10-31T12:16:29;94872.03;;;22.26;40.93
4469;BME280;2247;42.666;23.292;2022-10-31T12:19:00;94868.44;;;22.34;41.40
4469;BME280;2247;42.666;23.292;2022-10-31T12:22:05;94862.63;;;22.32;40.44
4469;BME280;2247;42.666;23.292;2022-10-31T12:24:48;94872.28;;;22.33;40.94
4469;BME280;2247;42.666;23.292;2022-10-31T12:27:27;94867.31;;;22.35;40.79
4469;BME280;2247;42.666;23.292;2022-10-31T12:30:10;94870.94;;;22.39;41.01
4469;BME280;2247;42.666;23.292;2022-10-31T12:32:49;94867.56;;;22.43;40.81
4469;BME280;2247;42.666;23.292;2022-10-31T12:35:25;94872.28;;;22.46;40.63
4469;BME280;2247;42.666;23.292;2022-10-31T12:41:01;94868.91;;;22.49;40.87
4469;BME280;2247;42.666;23.292;2022-10-31T12:43:37;94868.25;;;22.52;40.51
4469;BME280;2247;42.666;23.292;2022-10-31T12:46:12;94861.09;;;22.56;41.16
4469;BME280;2247;42.666;23.292;2022-10-31T12:51:33;94866.28;;;22.61;40.81
4469;BME280;2247;42.666;23.292;2022-10-31T12:54:25;94858.53;;;22.59;40.70
4469;BME280;2247;42.666;23.292;2022-10-31T12:57:03;94871.19;;;22.59;40.18
4469;BME280;2247;42.666;23.292;2022-10-31T12:59:35;94863.44;;;22.57;40.18
4469;BME280;2247;42.666;23.292;2022-10-31T13:02:16;94862.78;;;22.60;40.48
4469;BME280;2247;42.666;23.292;2022-10-31T13:04:48;94862.56;;;22.65;40.24
4469;BME280;2247;42.666;23.292;2022-10-31T13:07:20;94861.00;;;22.64;40.06
4469;BME280;2247;42.666;23.292;2022-10-31T13:09:56;94864.78;;;22.63;40.11
4469;BME280;2247;42.666;23.292;2022-10-31T13:12:27;94859.41;;;22.63;40.37
4469;BME280;2247;42.666;23.292;2022-10-31T13:14:58;94865.72;;;22.67;39.72
4469;BME280;2247;42.666;23.292;2022-10-31T13:17:30;94860.66;;;22.66;39.74
4469;BME280;2247;42.666;23.292;2022-10-31T13:20:13;94870.63;;;22.65;39.89
4469;BME280;2247;42.666;23.292;2022-10-31T13:22:44;94858.75;;;22.66;39.57
4469;BME280;2247;42.666;23.292;2022-10-31T13:25:15;94857.75;;;22.71;39.54
4469;BME280;2247;42.666;23.292;2022-10-31T13:27:47;94861.72;;;22.73;39.70
4469;BME280;2247;42.666;23.292;2022-10-31T13:30:17;94865.63;;;22.76;39.54
4469;BME280;2247;42.666;23.292;2022-10-31T13:32:48;94858.66;;;22.75;39.92
4469;BME280;2247;42.666;23.292;2022-10-31T13:35:22;94860.91;;;22.73;39.37